createdAt,value
2024-05-09T00:00:56.442Z,9.18
2024-05-09T00:03:25.840Z,10.93
2024-05-09T00:05:55.264Z,10.17
2024-05-09T00:08:24.742Z,12.35
2024-05-09T00:10:56.900Z,9.02
2024-05-09T00:13:26.311Z,10.68
2024-05-09T00:15:55.702Z,10.27
2024-05-09T00:18:25.289Z,11.07
2024-05-09T00:20:54.869Z,12.35
2024-05-09T00:23:24.272Z,5.53
2024-05-09T00:25:56.332Z,3.33
2024-05-09T00:28:25.744Z,2.80
2024-05-09T00:30:55.243Z,9.82
2024-05-09T00:33:24.815Z,14.35
2024-05-09T00:35:54.303Z,11.60
2024-05-09T00:38:23.721Z,10.88
2024-05-09T00:40:55.669Z,13.00
2024-05-09T00:43:25.021Z,13.15
2024-05-09T00:45:56.859Z,7.77
2024-05-09T00:48:26.840Z,4.47
2024-05-09T00:50:57.649Z,1.57
2024-05-09T00:53:27.623Z,1.33
2024-05-09T00:56:00.187Z,1.80
2024-05-09T00:58:31.705Z,2.42
2024-05-09T01:01:03.980Z,14.68
2024-05-09T01:03:33.554Z,13.30
2024-05-09T01:06:03.207Z,15.43
2024-05-09T01:08:32.580Z,14.23
2024-05-09T01:11:04.650Z,14.77
2024-05-09T01:13:34.023Z,14.15
2024-05-09T01:16:03.557Z,15.10
2024-05-09T01:18:33.014Z,16.20
2024-05-09T01:21:02.631Z,17.20
2024-05-09T01:23:34.628Z,14.43
2024-05-09T01:26:04.215Z,14.55
2024-05-09T01:28:33.610Z,16.27
2024-05-09T01:31:02.996Z,18.48
2024-05-09T01:33:32.795Z,14.37
2024-05-09T01:35:59.953Z,15.15
2024-05-09T01:38:29.666Z,16.10
2024-05-09T01:41:01.733Z,17.67
2024-05-09T01:43:31.092Z,4.30
2024-05-09T01:46:00.422Z,4.53
2024-05-09T01:48:29.985Z,2.97
2024-05-09T01:50:59.405Z,2.42
2024-05-09T01:53:28.782Z,4.38
2024-05-09T01:56:00.891Z,6.72
2024-05-09T01:58:31.017Z,7.97
2024-05-09T02:01:00.414Z,5.10
2024-05-09T02:03:30.015Z,7.13
2024-05-09T02:05:59.554Z,5.40
2024-05-09T02:08:29.015Z,2.83
2024-05-09T02:11:01.123Z,7.53
2024-05-09T02:13:30.621Z,4.50
2024-05-09T02:15:59.997Z,5.80
2024-05-09T02:18:29.380Z,7.22
2024-05-09T02:20:58.841Z,8.43
2024-05-09T02:23:28.258Z,5.33
2024-05-09T02:25:57.713Z,5.60
2024-05-09T02:28:29.662Z,6.87
2024-05-09T02:30:59.010Z,8.27
2024-05-09T02:33:28.583Z,5.18
2024-05-09T02:35:58.110Z,8.73
2024-05-09T02:38:24.828Z,6.25
2024-05-09T02:40:54.201Z,7.18
2024-05-09T02:43:20.941Z,3.97
2024-05-09T02:45:52.919Z,12.30
2024-05-09T02:48:19.872Z,7.47
2024-05-09T02:50:49.431Z,5.43
2024-05-09T02:53:16.371Z,5.25
2024-05-09T02:55:45.875Z,8.73
2024-05-09T02:58:12.600Z,5.80
2024-05-09T03:00:43.152Z,4.00
2024-05-09T03:03:14.745Z,2.45
2024-05-09T03:05:45.570Z,7.15
2024-05-09T03:08:12.736Z,4.05
2024-05-09T03:10:42.604Z,8.30
2024-05-09T03:13:12.242Z,2.90
2024-05-09T03:15:42.518Z,4.00
2024-05-09T03:18:09.961Z,2.10
2024-05-09T03:20:43.840Z,2.92
2024-05-09T03:23:10.874Z,11.77
2024-05-09T03:25:40.408Z,7.05
2024-05-09T03:28:07.233Z,5.63
2024-05-09T03:30:41.712Z,16.05
2024-05-09T03:33:10.865Z,6.85
2024-05-09T03:35:43.253Z,3.85
2024-05-09T03:38:12.864Z,9.23
2024-05-09T03:40:47.519Z,6.88
2024-05-09T03:43:17.660Z,10.80
2024-05-09T03:45:47.673Z,6.47
2024-05-09T03:48:14.574Z,12.10
2024-05-09T03:50:47.009Z,18.73
2024-05-09T03:53:14.675Z,30.70
2024-05-09T03:55:44.300Z,34.45
2024-05-09T03:58:12.997Z,31.80
2024-05-09T04:00:42.712Z,31.70
2024-05-09T04:03:11.656Z,29.08
2024-05-09T04:05:43.891Z,32.35
2024-05-09T04:08:14.262Z,31.13
2024-05-09T04:10:44.174Z,31.75
2024-05-09T04:13:11.225Z,33.42
2024-05-09T04:15:40.605Z,31.92
2024-05-09T04:18:07.627Z,32.95
2024-05-09T04:20:39.936Z,31.60
2024-05-09T04:23:14.352Z,29.23
2024-05-09T04:25:46.676Z,33.75
2024-05-09T04:28:14.012Z,29.17
2024-05-09T04:30:43.654Z,30.73
2024-05-09T04:33:13.246Z,31.23
2024-05-09T04:35:44.986Z,30.65
2024-05-09T04:38:15.552Z,30.05
2024-05-09T04:40:45.499Z,29.88
2024-05-09T04:43:17.024Z,29.58
2024-05-09T04:45:46.434Z,29.48
2024-05-09T04:48:13.493Z,31.00
2024-05-09T04:50:43.037Z,30.25
2024-05-09T04:53:14.723Z,27.88
2024-05-09T04:55:46.817Z,28.13
2024-05-09T04:58:13.710Z,28.23
2024-05-09T05:00:43.264Z,29.45
2024-05-09T05:03:14.299Z,27.88
2024-05-09T05:05:46.299Z,31.87
2024-05-09T05:08:14.167Z,30.75
2024-05-09T05:10:47.336Z,30.67
2024-05-09T05:13:20.737Z,27.08
2024-05-09T05:15:53.582Z,27.27
2024-05-09T05:18:21.166Z,26.60
2024-05-09T05:20:50.904Z,29.98
2024-05-09T05:23:22.213Z,27.95
2024-05-09T05:25:53.483Z,28.85
2024-05-09T05:28:23.611Z,29.67
2024-05-09T05:30:50.544Z,27.92
2024-05-09T05:33:22.330Z,30.35
2024-05-09T05:35:49.621Z,31.50
2024-05-09T05:38:20.039Z,28.30
2024-05-09T05:40:48.726Z,26.02
2024-05-09T05:43:23.542Z,30.38
2024-05-09T05:45:50.281Z,27.92
2024-05-09T05:48:19.847Z,27.40
2024-05-09T05:50:46.882Z,27.70
2024-05-09T05:53:16.522Z,26.00
2024-05-09T05:55:43.401Z,12.05
2024-05-09T05:58:14.347Z,2.20
2024-05-09T06:00:44.110Z,0.70
2024-05-09T06:03:14.894Z,4.38
2024-05-09T06:05:43.576Z,1.55
2024-05-09T06:08:13.422Z,4.97
2024-05-09T06:10:41.364Z,3.85
2024-05-09T06:13:12.391Z,5.00
2024-05-09T06:15:39.866Z,1.80
2024-05-09T06:18:12.860Z,3.77
2024-05-09T06:20:41.525Z,4.10
2024-05-09T06:23:12.543Z,2.60
2024-05-09T06:25:39.958Z,7.13
2024-05-09T06:28:09.646Z,0.43
2024-05-09T06:30:40.316Z,2.30
2024-05-09T06:33:16.073Z,2.47
2024-05-09T06:35:43.878Z,0.50
2024-05-09T06:38:13.670Z,3.60
2024-05-09T06:40:42.614Z,0.50
2024-05-09T06:43:14.055Z,2.47
2024-05-09T06:45:41.443Z,8.70
2024-05-09T06:48:14.461Z,2.60
2024-05-09T06:50:41.513Z,0.10
2024-05-09T06:53:11.262Z,0.73
2024-05-09T06:55:38.272Z,0.08
2024-05-09T06:58:08.975Z,1.60
2024-05-09T07:00:39.520Z,1.08
2024-05-09T07:03:11.744Z,3.25
2024-05-09T07:05:42.518Z,0.50
2024-05-09T07:08:12.292Z,1.63
2024-05-09T07:10:39.162Z,3.42
2024-05-09T07:13:11.891Z,0.35
2024-05-09T07:15:39.095Z,1.33
2024-05-09T07:18:13.847Z,0.60
2024-05-09T07:20:43.694Z,2.90
2024-05-09T07:23:13.998Z,1.10
2024-05-09T07:25:41.815Z,7.78
2024-05-09T07:28:14.010Z,3.05
2024-05-09T07:30:40.926Z,3.20
2024-05-09T07:33:12.109Z,0.28
2024-05-09T07:35:41.713Z,1.65
2024-05-09T07:38:11.268Z,0.30
2024-05-09T07:40:41.743Z,4.28
2024-05-09T07:43:11.474Z,1.70
2024-05-09T07:45:50.659Z,1.80
2024-05-09T07:52:38.096Z,0.33
2024-05-09T07:53:48.213Z,2.58
2024-05-09T07:56:22.903Z,3.73
2024-05-09T07:58:52.157Z,2.63
2024-05-09T08:01:22.306Z,2.10
2024-05-09T08:03:49.419Z,2.53
2024-05-09T08:06:19.026Z,1.55
2024-05-09T08:08:48.547Z,5.60
2024-05-09T08:11:18.117Z,0.85
2024-05-09T08:13:44.889Z,0.30
2024-05-09T08:16:15.905Z,0.95
2024-05-09T08:18:42.840Z,1.30
2024-05-09T08:21:12.303Z,4.70
2024-05-09T08:23:39.038Z,1.02
2024-05-09T08:26:11.014Z,0.47
2024-05-09T08:28:37.778Z,1.67
2024-05-09T08:31:07.847Z,5.70
2024-05-09T08:33:34.939Z,0.50
2024-05-09T08:36:04.473Z,0.30
2024-05-09T08:38:31.235Z,2.93
2024-05-09T08:41:00.576Z,0.80
2024-05-09T08:43:30.334Z,1.33
2024-05-09T08:46:01.571Z,1.13
2024-05-09T08:48:29.995Z,1.40
2024-05-09T08:51:01.049Z,1.10
2024-05-09T08:53:27.916Z,2.33
2024-05-09T08:55:57.871Z,1.80
2024-05-09T08:58:25.822Z,0.73
2024-05-09T09:01:00.183Z,0.00
2024-05-09T09:03:29.323Z,1.40
2024-05-09T09:06:01.644Z,0.57
2024-05-09T09:08:28.411Z,0.30
2024-05-09T09:11:00.240Z,0.35
2024-05-09T09:13:27.821Z,0.30
2024-05-09T09:16:01.029Z,0.77
2024-05-09T09:18:29.328Z,0.70
2024-05-09T09:20:59.251Z,0.82
2024-05-09T09:23:28.308Z,1.10
2024-05-09T09:26:01.172Z,1.60
2024-05-09T09:28:28.162Z,0.68
2024-05-09T09:31:04.278Z,2.10
2024-05-09T09:33:32.089Z,1.20
2024-05-09T09:36:02.037Z,0.73
2024-05-09T09:38:31.461Z,0.30
2024-05-09T09:41:07.378Z,1.20
2024-05-09T09:43:35.926Z,0.40
2024-05-09T09:46:10.813Z,0.10
2024-05-09T09:48:41.529Z,0.50
2024-05-09T09:51:11.711Z,2.28
2024-05-09T09:53:38.711Z,1.33
2024-05-09T09:56:10.633Z,0.20
2024-05-09T09:58:39.568Z,0.03
2024-05-09T10:01:11.644Z,0.23
2024-05-09T10:03:38.888Z,0.60
2024-05-09T10:06:10.295Z,0.10
2024-05-09T10:08:37.987Z,1.17
2024-05-09T10:11:07.790Z,0.30
2024-05-09T10:13:34.969Z,0.50
2024-05-09T10:16:13.420Z,1.05
2024-05-09T10:18:41.060Z,1.25
2024-05-09T10:21:20.602Z,4.68
2024-05-09T10:23:57.294Z,1.40
2024-05-09T10:26:33.726Z,1.75
2024-05-09T10:29:03.175Z,1.55
2024-05-09T10:31:35.128Z,0.40
2024-05-09T10:34:05.382Z,0.70
2024-05-09T10:36:32.367Z,0.30
2024-05-09T10:39:02.321Z,0.47
2024-05-09T10:41:29.222Z,0.37
2024-05-09T10:43:58.583Z,0.50
2024-05-09T10:46:25.414Z,2.55
2024-05-09T10:48:57.645Z,0.30
2024-05-09T10:51:24.699Z,0.50
2024-05-09T10:53:54.079Z,0.43
2024-05-09T10:56:20.802Z,2.35
2024-05-09T10:58:50.313Z,2.28
2024-05-09T11:01:17.172Z,0.73
2024-05-09T11:03:50.658Z,0.10
2024-05-09T11:06:20.315Z,1.40
2024-05-09T11:08:50.311Z,1.08
2024-05-09T11:11:17.417Z,1.67
2024-05-09T11:13:46.791Z,0.30
2024-05-09T11:16:19.772Z,2.85
2024-05-09T11:18:56.285Z,0.90
2024-05-09T11:21:26.705Z,0.28
2024-05-09T11:23:56.347Z,1.73
2024-05-09T11:26:25.072Z,1.52
2024-05-09T11:28:54.722Z,1.35
2024-05-09T11:31:21.756Z,1.00
2024-05-09T11:33:51.534Z,0.43
2024-05-09T11:36:18.430Z,0.80
2024-05-09T11:38:50.378Z,0.52
2024-05-09T11:41:17.767Z,3.30
2024-05-09T11:43:47.353Z,0.75
2024-05-09T11:46:14.544Z,0.10
2024-05-09T11:48:44.318Z,0.95
2024-05-09T11:51:11.276Z,0.57
2024-05-09T11:53:40.589Z,0.82
2024-05-09T11:56:11.872Z,0.50
2024-05-09T11:58:41.556Z,2.13
2024-05-09T12:01:08.502Z,0.00
2024-05-09T12:03:38.257Z,0.30
2024-05-09T12:06:06.050Z,0.88
2024-05-09T12:08:35.641Z,3.38
2024-05-09T12:11:02.557Z,0.63
2024-05-09T12:13:34.611Z,0.73
2024-05-09T12:16:01.765Z,2.28
2024-05-09T12:18:31.480Z,0.50
2024-05-09T12:20:58.323Z,0.60
2024-05-09T12:23:27.662Z,0.50
2024-05-09T12:25:54.551Z,0.10
2024-05-09T12:28:24.176Z,1.03
2024-05-09T12:30:53.756Z,0.25
2024-05-09T12:33:23.124Z,0.50
2024-05-09T12:35:51.199Z,0.30
2024-05-09T12:38:20.910Z,0.40
2024-05-09T12:40:47.769Z,0.60
2024-05-09T12:43:17.264Z,1.05
2024-05-09T12:45:44.148Z,2.08
2024-05-09T12:48:16.438Z,1.35
2024-05-09T12:50:43.373Z,0.20
2024-05-09T12:53:13.009Z,0.22
2024-05-09T12:55:47.968Z,0.90
2024-05-09T12:58:24.177Z,0.30
2024-05-09T13:00:51.770Z,0.10
2024-05-09T13:03:24.249Z,0.47
2024-05-09T13:05:51.828Z,0.65
2024-05-09T13:08:22.455Z,1.70
2024-05-09T13:10:50.388Z,2.30
2024-05-09T13:13:20.079Z,0.63
2024-05-09T13:15:47.073Z,0.57
2024-05-09T13:18:16.721Z,0.30
2024-05-09T13:20:46.270Z,0.08
2024-05-09T13:23:15.609Z,0.65
2024-05-09T13:25:42.619Z,0.20
2024-05-09T13:28:12.305Z,0.50
2024-05-09T13:30:41.703Z,0.40
2024-05-09T13:33:12.867Z,0.20
2024-05-09T13:35:47.207Z,0.98
2024-05-09T13:38:22.548Z,0.75
2024-05-09T13:40:50.326Z,0.38
2024-05-09T13:43:21.830Z,16.80
2024-05-09T13:45:48.904Z,0.33
2024-05-09T13:48:19.637Z,0.13
2024-05-09T13:50:46.705Z,3.20
2024-05-09T13:53:16.113Z,0.88
2024-05-09T13:55:45.667Z,0.50
2024-05-09T13:58:15.230Z,0.45
2024-05-09T14:00:47.032Z,1.00
2024-05-09T14:03:20.061Z,0.73
2024-05-09T14:05:48.176Z,0.30
2024-05-09T14:08:19.417Z,3.50
2024-05-09T14:10:49.304Z,2.10
2024-05-09T14:13:18.967Z,0.70
2024-05-09T14:15:46.147Z,0.30
2024-05-09T14:18:15.888Z,0.63
2024-05-09T14:20:43.081Z,0.13
2024-05-09T14:23:12.929Z,0.22
2024-05-09T14:25:42.808Z,0.30
2024-05-09T14:28:15.943Z,0.63
2024-05-09T14:30:43.104Z,2.72
2024-05-09T14:33:12.754Z,1.88
2024-05-09T14:35:39.661Z,0.22
2024-05-09T14:38:09.855Z,0.28
2024-05-09T14:40:42.427Z,0.95
2024-05-09T14:43:17.080Z,0.55
2024-05-09T14:45:44.738Z,0.25
2024-05-09T14:48:14.649Z,0.32
2024-05-09T14:50:41.800Z,3.05
2024-05-09T14:53:12.688Z,1.13
2024-05-09T14:55:41.707Z,1.50
2024-05-09T14:58:13.604Z,1.88
2024-05-09T15:00:49.850Z,2.95
2024-05-09T15:03:22.004Z,0.40
2024-05-09T15:05:50.366Z,4.50
2024-05-09T15:08:21.011Z,0.30
2024-05-09T15:10:49.868Z,0.20
2024-05-09T15:13:20.109Z,0.60
2024-05-09T15:15:49.832Z,0.80
2024-05-09T15:18:19.763Z,0.10
2024-05-09T15:20:47.063Z,1.20
2024-05-09T15:23:16.476Z,0.22
2024-05-09T15:25:44.684Z,0.45
2024-05-09T15:28:14.238Z,0.40
2024-05-09T15:30:45.421Z,0.55
2024-05-09T15:33:18.757Z,0.65
2024-05-09T15:35:46.763Z,0.88
2024-05-09T15:38:17.793Z,0.22
2024-05-09T15:40:44.818Z,1.80
2024-05-09T15:43:14.766Z,0.35
2024-05-09T15:45:41.962Z,0.25
2024-05-09T15:48:12.356Z,0.60
2024-05-09T15:50:42.848Z,1.00
2024-05-09T15:53:13.852Z,1.00
2024-05-09T15:55:41.976Z,1.70
2024-05-09T15:58:12.272Z,0.87
2024-05-09T16:00:42.312Z,0.77
2024-05-09T16:03:14.714Z,0.35
2024-05-09T16:05:45.547Z,1.30
2024-05-09T16:08:16.720Z,0.15
2024-05-09T16:10:45.979Z,0.20
2024-05-09T16:13:17.342Z,0.20
2024-05-09T16:15:44.751Z,0.40
2024-05-09T16:18:15.060Z,1.40
2024-05-09T16:20:46.418Z,0.20
2024-05-09T16:23:17.861Z,0.60
2024-05-09T16:25:47.481Z,1.00
2024-05-09T16:28:17.055Z,0.30
2024-05-09T16:30:43.961Z,0.35
2024-05-09T16:33:13.739Z,2.35
2024-05-09T16:35:41.006Z,0.20
2024-05-09T16:38:13.292Z,0.20
2024-05-09T16:40:41.354Z,0.50
2024-05-09T16:43:12.140Z,0.10
2024-05-09T16:45:41.040Z,2.10
2024-05-09T16:48:11.664Z,0.40
2024-05-09T16:50:38.918Z,0.13
2024-05-09T16:53:08.684Z,1.90
2024-05-09T16:55:38.478Z,1.15
2024-05-09T16:58:09.086Z,1.33
2024-05-09T17:00:41.460Z,0.10
2024-05-09T17:03:15.670Z,0.55
2024-05-09T17:05:43.921Z,0.55
2024-05-09T17:08:13.822Z,1.03
2024-05-09T17:10:43.406Z,0.20
2024-05-09T17:13:12.848Z,0.17
2024-05-09T17:15:42.321Z,0.30
2024-05-09T17:18:12.513Z,1.67
2024-05-09T17:20:39.276Z,1.55
2024-05-09T17:23:13.445Z,0.13
2024-05-09T17:25:43.766Z,0.20
2024-05-09T17:28:13.611Z,0.20
2024-05-09T17:30:42.201Z,0.20
2024-05-09T17:33:13.390Z,1.40
2024-05-09T17:35:41.376Z,0.70
2024-05-09T17:38:11.027Z,0.10
2024-05-09T17:40:40.658Z,0.17
2024-05-09T17:43:10.973Z,3.00
2024-05-09T17:45:41.622Z,0.10
2024-05-09T17:48:10.369Z,0.08
2024-05-09T17:50:41.620Z,0.10
2024-05-09T17:53:09.362Z,0.20
2024-05-09T17:55:38.896Z,0.00
2024-05-09T17:58:06.079Z,0.10
2024-05-09T18:00:41.156Z,0.10
2024-05-09T18:03:11.088Z,0.10
2024-05-09T18:05:41.728Z,0.10
2024-05-09T18:08:09.120Z,0.30
2024-05-09T18:10:40.412Z,0.10
2024-05-09T18:13:08.306Z,0.00
2024-05-09T18:15:41.072Z,0.10
2024-05-09T18:18:09.171Z,1.40
2024-05-09T18:20:43.911Z,0.10
2024-05-09T18:23:14.609Z,0.90
2024-05-09T18:25:45.387Z,0.10
2024-05-09T18:28:12.500Z,0.20
2024-05-09T18:30:44.842Z,0.30
2024-05-09T18:33:12.281Z,0.40
2024-05-09T18:35:43.779Z,0.20
2024-05-09T18:38:11.093Z,1.23
2024-05-09T18:40:42.812Z,0.10
2024-05-09T18:43:11.133Z,0.35
2024-05-09T18:45:40.703Z,0.20
2024-05-09T18:48:11.635Z,1.60
2024-05-09T18:50:41.807Z,0.40
2024-05-09T18:53:09.874Z,1.02
2024-05-09T18:55:39.397Z,0.35
2024-05-09T18:58:06.884Z,1.05
2024-05-09T19:00:39.137Z,1.10
2024-05-09T19:03:13.290Z,0.77
2024-05-09T19:05:45.490Z,1.08
2024-05-09T19:08:13.327Z,2.17
2024-05-09T19:10:45.377Z,0.20
2024-05-09T19:13:13.919Z,1.10
2024-05-09T19:15:44.805Z,3.30
2024-05-09T19:18:15.219Z,0.60
2024-05-09T19:20:45.164Z,0.03
2024-05-09T19:23:12.215Z,0.10
2024-05-09T19:25:41.619Z,0.40
2024-05-09T19:28:08.650Z,0.40
2024-05-09T19:30:41.429Z,0.38
2024-05-09T19:33:10.914Z,0.43
2024-05-09T19:35:44.428Z,0.93
2024-05-09T19:38:11.988Z,0.90
2024-05-09T19:40:41.483Z,2.17
2024-05-09T19:43:08.572Z,1.98
2024-05-09T19:45:38.126Z,0.35
2024-05-09T19:48:06.570Z,2.00
2024-05-09T19:50:42.057Z,1.10
2024-05-09T19:53:14.349Z,0.50
2024-05-09T19:55:44.383Z,2.08
2024-05-09T19:58:12.035Z,0.70
2024-05-09T20:00:43.772Z,1.38
2024-05-09T20:03:12.186Z,5.03
2024-05-09T20:05:42.083Z,2.60
2024-05-09T20:08:08.932Z,1.58
2024-05-09T20:10:41.075Z,0.70
2024-05-09T20:13:08.579Z,1.52
2024-05-09T20:15:38.744Z,1.17
2024-05-09T20:18:08.714Z,1.83
2024-05-09T20:20:39.699Z,0.32
2024-05-09T20:23:12.178Z,6.10
2024-05-09T20:25:42.158Z,1.23
2024-05-09T20:28:11.723Z,0.50
2024-05-09T20:30:38.698Z,1.03
2024-05-09T20:33:09.621Z,1.75
2024-05-09T20:35:37.078Z,0.70
2024-05-09T20:38:07.070Z,1.27
2024-05-09T20:40:37.626Z,3.83
2024-05-09T20:43:11.697Z,0.50
2024-05-09T20:45:39.526Z,1.42
2024-05-09T20:48:11.339Z,1.98
2024-05-09T20:50:41.272Z,0.95
2024-05-09T20:53:14.526Z,1.73
2024-05-09T20:55:42.124Z,0.80
2024-05-09T20:58:14.285Z,0.67
2024-05-09T21:00:44.202Z,0.90
2024-05-09T21:03:17.223Z,2.22
2024-05-09T21:05:44.803Z,3.17
2024-05-09T21:08:14.440Z,1.90
2024-05-09T21:10:41.480Z,1.90
2024-05-09T21:13:11.171Z,2.05
2024-05-09T21:15:40.893Z,0.50
2024-05-09T21:18:10.524Z,1.88
2024-05-09T21:20:37.619Z,1.00
2024-05-09T21:23:07.386Z,1.10
2024-05-09T21:25:34.259Z,1.70
2024-05-09T21:28:03.619Z,4.25
2024-05-09T21:30:38.742Z,1.30
2024-05-09T21:33:15.324Z,1.05
2024-05-09T21:35:42.626Z,0.77
2024-05-09T21:38:13.383Z,3.20
2024-05-09T21:40:40.362Z,0.95
2024-05-09T21:43:10.071Z,1.10
2024-05-09T21:45:37.393Z,1.35
2024-05-09T21:48:08.045Z,3.50
2024-05-09T21:50:41.008Z,2.20
2024-05-09T21:53:12.602Z,3.08
2024-05-09T21:55:39.994Z,1.38
2024-05-09T21:58:10.487Z,2.55
2024-05-09T22:00:39.482Z,1.92
2024-05-09T22:03:10.879Z,2.55
2024-05-09T22:05:43.620Z,0.93
2024-05-09T22:08:13.285Z,1.95
2024-05-09T22:10:40.142Z,1.15
2024-05-09T22:13:09.780Z,1.20
2024-05-09T22:15:39.050Z,1.52
2024-05-09T22:18:10.636Z,0.77
2024-05-09T22:20:45.144Z,2.00
2024-05-09T22:23:16.028Z,0.77
2024-05-09T22:25:43.953Z,1.48
2024-05-09T22:28:16.082Z,2.17
2024-05-09T22:30:45.535Z,1.27
2024-05-09T22:33:15.501Z,3.10
2024-05-09T22:35:45.383Z,3.33
2024-05-09T22:38:14.943Z,1.05
2024-05-09T22:40:47.539Z,1.85
2024-05-09T22:43:21.473Z,0.60
2024-05-09T22:45:50.501Z,1.73
2024-05-09T22:48:20.455Z,0.60
2024-05-09T22:50:50.038Z,4.15
2024-05-09T22:53:19.580Z,1.40
2024-05-09T22:55:46.305Z,1.30
2024-05-09T22:58:15.800Z,1.05
2024-05-09T23:00:42.905Z,2.42
2024-05-09T23:03:14.046Z,2.35
2024-05-09T23:05:40.816Z,2.60
2024-05-09T23:08:12.976Z,1.35
2024-05-09T23:10:39.878Z,2.33
2024-05-09T23:13:09.375Z,2.05
2024-05-09T23:15:37.041Z,0.88
2024-05-09T23:18:07.053Z,0.70
2024-05-09T23:20:38.276Z,1.58
2024-05-09T23:23:10.541Z,2.60
2024-05-09T23:25:41.646Z,14.20
2024-05-09T23:28:11.510Z,2.00
2024-05-09T23:30:40.637Z,1.33
2024-05-09T23:33:13.288Z,1.30
2024-05-09T23:35:42.210Z,3.78
2024-05-09T23:38:11.963Z,8.15
2024-05-09T23:40:42.525Z,0.70
2024-05-09T23:43:13.192Z,1.02
2024-05-09T23:45:40.427Z,1.85
2024-05-09T23:48:11.157Z,1.55
2024-05-09T23:50:39.800Z,1.27
2024-05-09T23:53:10.830Z,7.38
2024-05-09T23:55:38.383Z,1.13
2024-05-09T23:58:11.375Z,2.90
